sensor_id;sensor_type;location;lat;lon;timestamp;pressure;altitude;pressure_sealevel;temperature;humidity
70206;BME280;57593;55.896;37.396;2023-01-28T00:00:06;100117.25;;;-1.16;100.00
70206;BME280;57593;55.896;37.396;2023-01-28T00:00:37;100124.06;;;-1.27;100.00
70206;BME280;57593;55.896;37.396;2023-01-28T00:01:11;100119.88;;;-1.28;100.00
70206;BME280;57593;55.896;37.396;2023-01-28T00:01:41;100114.25;;;-1.25;100.00
70206;BME280;57593;55.896;37.396;2023-01-28T00:02:12;100112.69;;;-1.26;100.00
70206;BME280;57593;55.896;37.396;2023-01-28T00:02:43;100111.34;;;-1.29;100.00
70206;BME280;57593;55.896;37.396;2023-01-28T00:03:17;100109.97;;;-1.31;100.00
70206;BME280;57593;55.896;37.396;2023-01-28T00:03:50;100111.47;;;-1.35;100.00
70206;BME280;57593;55.896;37.396;2023-01-28T00:04:23;100112.94;;;-1.39;100.00
70206;BME280;57593;55.896;37.396;2023-01-28T00:04:54;100109.91;;;-1.36;100.00
70206;BME280;57593;55.896;37.396;2023-01-28T00:05:25;100107.31;;;-1.36;100.00
70206;BME280;57593;55.896;37.396;2023-01-28T00:06:18;100118.22;;;-1.34;100.00
70206;BME280;57593;55.896;37.396;2023-01-28T00:06:49;100110.78;;;-1.31;100.00
70206;BME280;57593;55.896;37.396;2023-01-28T00:07:19;100108.19;;;-1.31;100.00
70206;BME280;57593;55.896;37.396;2023-01-28T00:07:51;100096.00;;;-1.30;100.00
70206;BME280;57593;55.896;37.396;2023-01-28T00:08:22;100109.50;;;-1.28;100.00
70206;BME280;57593;55.896;37.396;2023-01-28T00:08:53;100104.28;;;-1.16;100.00
70206;BME280;57593;55.896;37.396;2023-01-28T00:09:25;100108.47;;;-1.15;100.00
70206;BME280;57593;55.896;37.396;2023-01-28T00:09:55;100110.72;;;-1.19;100.00
70206;BME280;57593;55.896;37.396;2023-01-28T00:10:26;100102.13;;;-1.07;100.00
70206;BME280;57593;55.896;37.396;2023-01-28T00:11:02;100109.31;;;-1.10;100.00
70206;BME280;57593;55.896;37.396;2023-01-28T00:11:33;100101.63;;;-1.04;100.00
70206;BME280;57593;55.896;37.396;2023-01-28T00:12:04;100106.97;;;-0.94;100.00
70206;BME280;57593;55.896;37.396;2023-01-28T00:12:35;100101.50;;;-0.98;100.00
70206;BME280;57593;55.896;37.396;2023-01-28T00:13:06;100100.13;;;-1.00;100.00
70206;BME280;57593;55.896;37.396;2023-01-28T00:13:37;100100.38;;;-0.85;100.00
70206;BME280;57593;55.896;37.396;2023-01-28T00:14:10;100102.22;;;-0.68;100.00
70206;BME280;57593;55.896;37.396;2023-01-28T00:14:40;100105.41;;;-0.61;100.00
70206;BME280;57593;55.896;37.396;2023-01-28T00:15:11;100098.03;;;-0.69;100.00
70206;BME280;57593;55.896;37.396;2023-01-28T00:15:42;100100.44;;;-0.97;100.00
70206;BME280;57593;55.896;37.396;2023-01-28T00:16:12;100104.06;;;-1.15;100.00
70206;BME280;57593;55.896;37.396;2023-01-28T00:16:43;100101.47;;;-1.15;100.00
70206;BME280;57593;55.896;37.396;2023-01-28T00:17:14;100110.66;;;-1.07;100.00
70206;BME280;57593;55.896;37.396;2023-01-28T00:17:44;100098.31;;;-1.17;100.00
70206;BME280;57593;55.896;37.396;2023-01-28T00:18:15;100110.78;;;-1.31;100.00
70206;BME280;57593;55.896;37.396;2023-01-28T00:18:46;100092.06;;;-1.33;100.00
70206;BME280;57593;55.896;37.396;2023-01-28T00:19:17;100101.91;;;-1.35;100.00
70206;BME280;57593;55.896;37.396;2023-01-28T00:19:47;100101.94;;;-1.18;100.00
70206;BME280;57593;55.896;37.396;2023-01-28T00:20:18;100102.34;;;-1.09;100.00
70206;BME280;57593;55.896;37.396;2023-01-28T00:20:59;100105.75;;;-1.20;100.00
70206;BME280;57593;55.896;37.396;2023-01-28T00:21:30;100105.13;;;-1.28;100.00
70206;BME280;57593;55.896;37.396;2023-01-28T00:22:01;100100.47;;;-1.14;100.00
70206;BME280;57593;55.896;37.396;2023-01-28T00:22:31;100107.44;;;-1.14;100.00
70206;BME280;57593;55.896;37.396;2023-01-28T00:23:02;100103.28;;;-1.15;100.00
70206;BME280;57593;55.896;37.396;2023-01-28T00:23:35;100106.41;;;-1.13;100.00
70206;BME280;57593;55.896;37.396;2023-01-28T00:24:06;100105.56;;;-1.02;100.00
70206;BME280;57593;55.896;37.396;2023-01-28T00:24:38;100105.31;;;-1.00;100.00
70206;BME280;57593;55.896;37.396;2023-01-28T00:25:09;100109.94;;;-1.19;100.00
70206;BME280;57593;55.896;37.396;2023-01-28T00:25:39;100104.59;;;-1.13;100.00
70206;BME280;57593;55.896;37.396;2023-01-28T00:26:13;100104.91;;;-1.26;100.00
70206;BME280;57593;55.896;37.396;2023-01-28T00:26:46;100106.56;;;-1.20;100.00
70206;BME280;57593;55.896;37.396;2023-01-28T00:27:17;100102.41;;;-1.21;100.00
70206;BME280;57593;55.896;37.396;2023-01-28T00:27:48;100105.88;;;-0.98;100.00
70206;BME280;57593;55.896;37.396;2023-01-28T00:28:20;100106.03;;;-0.88;100.00
70206;BME280;57593;55.896;37.396;2023-01-28T00:28:51;100103.69;;;-0.89;100.00
70206;BME280;57593;55.896;37.396;2023-01-28T00:29:22;100108.72;;;-0.83;100.00
70206;BME280;57593;55.896;37.396;2023-01-28T00:29:53;100109.66;;;-0.72;100.00
70206;BME280;57593;55.896;37.396;2023-01-28T00:30:24;100111.00;;;-0.69;100.00
70206;BME280;57593;55.896;37.396;2023-01-28T00:30:55;100108.25;;;-0.80;100.00
70206;BME280;57593;55.896;37.396;2023-01-28T00:31:26;100110.22;;;-0.87;100.00
70206;BME280;57593;55.896;37.396;2023-01-28T00:31:57;100110.53;;;-0.83;100.00
70206;BME280;57593;55.896;37.396;2023-01-28T00:32:28;100100.94;;;-0.83;100.00
70206;BME280;57593;55.896;37.396;2023-01-28T00:32:58;100099.59;;;-1.02;100.00
70206;BME280;57593;55.896;37.396;2023-01-28T00:33:29;100107.75;;;-0.94;100.00
70206;BME280;57593;55.896;37.396;2023-01-28T00:33:59;100106.22;;;-0.78;100.00
70206;BME280;57593;55.896;37.396;2023-01-28T00:34:30;100106.59;;;-0.69;100.00
70206;BME280;57593;55.896;37.396;2023-01-28T00:35:01;100111.31;;;-0.83;100.00
70206;BME280;57593;55.896;37.396;2023-01-28T00:35:31;100109.50;;;-0.99;100.00
70206;BME280;57593;55.896;37.396;2023-01-28T00:36:05;100113.50;;;-1.09;100.00
70206;BME280;57593;55.896;37.396;2023-01-28T00:36:36;100108.78;;;-1.12;100.00
70206;BME280;57593;55.896;37.396;2023-01-28T00:37:09;100102.72;;;-1.17;100.00
70206;BME280;57593;55.896;37.396;2023-01-28T00:37:39;100106.25;;;-1.06;100.00
70206;BME280;57593;55.896;37.396;2023-01-28T00:38:10;100098.00;;;-1.03;100.00
70206;BME280;57593;55.896;37.396;2023-01-28T00:38:41;100105.19;;;-1.11;100.00
70206;BME280;57593;55.896;37.396;2023-01-28T00:39:13;100106.81;;;-1.21;100.00
70206;BME280;57593;55.896;37.396;2023-01-28T00:39:45;100112.94;;;-1.11;100.00
70206;BME280;57593;55.896;37.396;2023-01-28T00:40:16;100112.84;;;-1.16;100.00
70206;BME280;57593;55.896;37.396;2023-01-28T00:40:47;100110.09;;;-1.26;100.00
70206;BME280;57593;55.896;37.396;2023-01-28T00:41:19;100111.56;;;-1.30;100.00
70206;BME280;57593;55.896;37.396;2023-01-28T00:41:54;100108.75;;;-1.29;100.00
70206;BME280;57593;55.896;37.396;2023-01-28T00:42:28;100116.09;;;-1.37;100.00
70206;BME280;57593;55.896;37.396;2023-01-28T00:42:59;100112.72;;;-1.38;100.00
70206;BME280;57593;55.896;37.396;2023-01-28T00:43:30;100112.69;;;-1.26;100.00
70206;BME280;57593;55.896;37.396;2023-01-28T00:44:00;100111.59;;;-1.13;100.00
70206;BME280;57593;55.896;37.396;2023-01-28T00:44:33;100110.41;;;-1.22;100.00
70206;BME280;57593;55.896;37.396;2023-01-28T00:45:07;100110.34;;;-1.11;100.00
70206;BME280;57593;55.896;37.396;2023-01-28T00:45:37;100115.78;;;-0.95;100.00
70206;BME280;57593;55.896;37.396;2023-01-28T00:46:09;100115.78;;;-0.95;100.00
70206;BME280;57593;55.896;37.396;2023-01-28T00:46:40;100114.00;;;-0.95;100.00
70206;BME280;57593;55.896;37.396;2023-01-28T00:47:11;100113.34;;;-0.85;100.00
70206;BME280;57593;55.896;37.396;2023-01-28T00:47:41;100107.78;;;-0.77;100.00
70206;BME280;57593;55.896;37.396;2023-01-28T00:48:14;100104.94;;;-0.75;100.00
70206;BME280;57593;55.896;37.396;2023-01-28T00:48:45;100118.16;;;-0.77;100.00
70206;BME280;57593;55.896;37.396;2023-01-28T00:49:16;100108.56;;;-0.59;100.00
70206;BME280;57593;55.896;37.396;2023-01-28T00:49:47;100107.41;;;-0.68;100.00
70206;BME280;57593;55.896;37.396;2023-01-28T00:50:17;100103.22;;;-0.69;100.00
70206;BME280;57593;55.896;37.396;2023-01-28T00:50:49;100107.94;;;-0.49;100.00
70206;BME280;57593;55.896;37.396;2023-01-28T00:51:20;100099.66;;;-0.46;100.00
70206;BME280;57593;55.896;37.396;2023-01-28T00:51:52;100104.69;;;-0.40;100.00
70206;BME280;57593;55.896;37.396;2023-01-28T00:52:23;100100.78;;;-0.76;100.00
70206;BME280;57593;55.896;37.396;2023-01-28T00:52:53;100105.88;;;-0.47;100.00
70206;BME280;57593;55.896;37.396;2023-01-28T00:53:24;100103.38;;;-0.59;100.00
70206;BME280;57593;55.896;37.396;2023-01-28T00:53:55;100100.16;;;-0.49;100.00
70206;BME280;57593;55.896;37.396;2023-01-28T00:54:25;100097.84;;;-0.46;100.00
70206;BME280;57593;55.896;37.396;2023-01-28T00:54:56;100104.16;;;-0.42;100.00
70206;BME280;57593;55.896;37.396;2023-01-28T00:55:27;100105.22;;;-0.38;100.00
70206;BME280;57593;55.896;37.396;2023-01-28T00:55:57;100105.41;;;-0.44;100.00
70206;BME280;57593;55.896;37.396;2023-01-28T00:56:28;100095.97;;;-0.50;100.00
70206;BME280;57593;55.896;37.396;2023-01-28T00:56:59;100098.97;;;-0.42;100.00
70206;BME280;57593;55.896;37.396;2023-01-28T00:57:29;100107.91;;;-0.32;100.00
70206;BME280;57593;55.896;37.396;2023-01-28T00:58:00;100101.13;;;-0.33;100.00
70206;BME280;57593;55.896;37.396;2023-01-28T00:58:31;100108.16;;;-0.34;100.00
70206;BME280;57593;55.896;37.396;2023-01-28T00:59:02;100107.34;;;-0.34;100.00
70206;BME280;57593;55.896;37.396;2023-01-28T00:59:33;100114.19;;;-0.45;100.00
70206;BME280;57593;55.896;37.396;2023-01-28T01:00:04;100113.81;;;-0.37;100.00
70206;BME280;57593;55.896;37.396;2023-01-28T01:00:35;100101.22;;;-0.45;100.00
70206;BME280;57593;55.896;37.396;2023-01-28T01:01:11;100104.94;;;-0.41;100.00
70206;BME280;57593;55.896;37.396;2023-01-28T01:01:42;100105.22;;;-0.38;100.00
70206;BME280;57593;55.896;37.396;2023-01-28T01:02:13;100114.34;;;-0.35;100.00
70206;BME280;57593;55.896;37.396;2023-01-28T01:02:44;100110.81;;;-0.46;100.00
70206;BME280;57593;55.896;37.396;2023-01-28T01:03:16;100116.47;;;-0.32;100.00
70206;BME280;57593;55.896;37.396;2023-01-28T01:03:47;100120.66;;;-0.31;100.00
70206;BME280;57593;55.896;37.396;2023-01-28T01:04:26;100113.72;;;-0.42;100.00
70206;BME280;57593;55.896;37.396;2023-01-28T01:05:07;100117.13;;;-0.59;100.00
70206;BME280;57593;55.896;37.396;2023-01-28T01:05:38;100116.94;;;-0.35;100.00
70206;BME280;57593;55.896;37.396;2023-01-28T01:06:09;100115.59;;;-0.38;100.00
70206;BME280;57593;55.896;37.396;2023-01-28T01:06:42;100110.56;;;-0.27;100.00
70206;BME280;57593;55.896;37.396;2023-01-28T01:07:12;100113.16;;;-0.27;100.00
70206;BME280;57593;55.896;37.396;2023-01-28T01:07:43;100114.28;;;-0.23;100.00
70206;BME280;57593;55.896;37.396;2023-01-28T01:08:14;100109.88;;;-0.57;100.00
70206;BME280;57593;55.896;37.396;2023-01-28T01:08:44;100105.88;;;-0.47;100.00
70206;BME280;57593;55.896;37.396;2023-01-28T01:09:19;100106.88;;;-0.48;100.00
70206;BME280;57593;55.896;37.396;2023-01-28T01:09:51;100112.72;;;-0.58;100.00
70206;BME280;57593;55.896;37.396;2023-01-28T01:10:22;100115.09;;;-0.74;100.00
70206;BME280;57593;55.896;37.396;2023-01-28T01:10:57;100107.53;;;-0.92;100.00
70206;BME280;57593;55.896;37.396;2023-01-28T01:11:28;100104.94;;;-1.09;100.00
70206;BME280;57593;55.896;37.396;2023-01-28T01:11:59;100106.09;;;-1.00;100.00
70206;BME280;57593;55.896;37.396;2023-01-28T01:12:29;100105.31;;;-1.00;100.00
70206;BME280;57593;55.896;37.396;2023-01-28T01:13:00;100114.84;;;-0.89;100.00
70206;BME280;57593;55.896;37.396;2023-01-28T01:13:31;100117.13;;;-0.93;100.00
70206;BME280;57593;55.896;37.396;2023-01-28T01:14:04;100111.38;;;-0.95;100.00
70206;BME280;57593;55.896;37.396;2023-01-28T01:14:36;100120.50;;;-0.75;100.00
70206;BME280;57593;55.896;37.396;2023-01-28T01:15:09;100124.75;;;-0.86;100.00
70206;BME280;57593;55.896;37.396;2023-01-28T01:15:40;100116.81;;;-0.96;100.00
70206;BME280;57593;55.896;37.396;2023-01-28T01:16:13;100119.47;;;-1.08;100.00
70206;BME280;57593;55.896;37.396;2023-01-28T01:16:45;100112.16;;;-1.11;100.00
70206;BME280;57593;55.896;37.396;2023-01-28T01:17:16;100112.00;;;-1.21;100.00
70206;BME280;57593;55.896;37.396;2023-01-28T01:17:48;100115.34;;;-1.21;100.00
70206;BME280;57593;55.896;37.396;2023-01-28T01:18:19;100129.50;;;-1.40;100.00
70206;BME280;57593;55.896;37.396;2023-01-28T01:18:51;100121.66;;;-1.46;100.00
70206;BME280;57593;55.896;37.396;2023-01-28T01:19:22;100120.88;;;-1.46;100.00
70206;BME280;57593;55.896;37.396;2023-01-28T01:19:53;100124.31;;;-1.40;100.00
70206;BME280;57593;55.896;37.396;2023-01-28T01:20:26;100121.31;;;-1.20;100.00
70206;BME280;57593;55.896;37.396;2023-01-28T01:20:57;100114.44;;;-1.15;100.00
70206;BME280;57593;55.896;37.396;2023-01-28T01:21:29;100117.16;;;-1.21;100.00
70206;BME280;57593;55.896;37.396;2023-01-28T01:22:00;100118.75;;;-1.03;100.00
70206;BME280;57593;55.896;37.396;2023-01-28T01:22:35;100123.41;;;-0.88;100.00
70206;BME280;57593;55.896;37.396;2023-01-28T01:23:06;100119.53;;;-1.03;100.00
70206;BME280;57593;55.896;37.396;2023-01-28T01:23:37;100120.16;;;-1.13;100.00
70206;BME280;57593;55.896;37.396;2023-01-28T01:24:08;100118.50;;;-1.19;100.00
70206;BME280;57593;55.896;37.396;2023-01-28T01:24:39;100120.53;;;-1.21;100.00
70206;BME280;57593;55.896;37.396;2023-01-28T01:25:11;100117.25;;;-1.16;100.00
70206;BME280;57593;55.896;37.396;2023-01-28T01:25:42;100121.91;;;-1.18;100.00
70206;BME280;57593;55.896;37.396;2023-01-28T01:26:13;100112.38;;;-1.13;100.00
70206;BME280;57593;55.896;37.396;2023-01-28T01:26:44;100117.72;;;-1.19;100.00
70206;BME280;57593;55.896;37.396;2023-01-28T01:27:14;100109.84;;;-1.24;100.00
70206;BME280;57593;55.896;37.396;2023-01-28T01:27:48;100113.56;;;-1.03;100.00
70206;BME280;57593;55.896;37.396;2023-01-28T01:28:19;100116.34;;;-0.93;100.00
70206;BME280;57593;55.896;37.396;2023-01-28T01:28:51;100121.31;;;-1.20;100.00
70206;BME280;57593;55.896;37.396;2023-01-28T01:29:21;100113.91;;;-1.29;100.00
70206;BME280;57593;55.896;37.396;2023-01-28T01:29:52;100113.84;;;-1.34;100.00
70206;BME280;57593;55.896;37.396;2023-01-28T01:30:22;100125.22;;;-1.35;100.00
70206;BME280;57593;55.896;37.396;2023-01-28T01:31:05;100128.97;;;-1.42;100.00
70206;BME280;57593;55.896;37.396;2023-01-28T01:31:37;100123.31;;;-1.39;100.00
70206;BME280;57593;55.896;37.396;2023-01-28T01:32:08;100120.97;;;-1.41;100.00
70206;BME280;57593;55.896;37.396;2023-01-28T01:32:38;100114.47;;;-1.55;100.00
70206;BME280;57593;55.896;37.396;2023-01-28T01:33:09;100113.19;;;-1.41;100.00
70206;BME280;57593;55.896;37.396;2023-01-28T01:33:41;100113.69;;;-1.27;100.00
70206;BME280;57593;55.896;37.396;2023-01-28T01:34:12;100115.44;;;-1.16;100.00
70206;BME280;57593;55.896;37.396;2023-01-28T01:34:43;100107.75;;;-1.11;100.00
70206;BME280;57593;55.896;37.396;2023-01-28T01:35:14;100112.22;;;-1.23;100.00
70206;BME280;57593;55.896;37.396;2023-01-28T01:35:52;100111.75;;;-1.20;100.00
70206;BME280;57593;55.896;37.396;2023-01-28T01:36:24;100115.16;;;-1.31;100.00
70206;BME280;57593;55.896;37.396;2023-01-28T01:36:55;100112.09;;;-1.28;100.00
70206;BME280;57593;55.896;37.396;2023-01-28T01:37:26;100105.31;;;-1.17;100.00
70206;BME280;57593;55.896;37.396;2023-01-28T01:37:57;100114.59;;;-1.04;100.00
70206;BME280;57593;55.896;37.396;2023-01-28T01:38:28;100107.50;;;-1.26;100.00
70206;BME280;57593;55.896;37.396;2023-01-28T01:38:59;100111.84;;;-1.15;100.00
70206;BME280;57593;55.896;37.396;2023-01-28T01:39:29;100111.22;;;-1.05;100.00
70206;BME280;57593;55.896;37.396;2023-01-28T01:40:01;100110.19;;;-1.04;100.00
70206;BME280;57593;55.896;37.396;2023-01-28T01:40:33;100115.78;;;-1.12;100.00
70206;BME280;57593;55.896;37.396;2023-01-28T01:41:04;100116.56;;;-1.12;100.00
70206;BME280;57593;55.896;37.396;2023-01-28T01:41:35;100116.81;;;-1.25;100.00
70206;BME280;57593;55.896;37.396;2023-01-28T01:42:10;100111.66;;;-1.25;100.00
70206;BME280;57593;55.896;37.396;2023-01-28T01:42:41;100117.75;;;-1.31;100.00
70206;BME280;57593;55.896;37.396;2023-01-28T01:43:19;100114.06;;;-1.35;100.00
70206;BME280;57593;55.896;37.396;2023-01-28T01:45:20;100117.88;;;-1.26;100.00
70206;BME280;57593;55.896;37.396;2023-01-28T01:45:57;100122.31;;;-1.38;100.00
70206;BME280;57593;55.896;37.396;2023-01-28T01:46:49;100122.53;;;-1.40;100.00
70206;BME280;57593;55.896;37.396;2023-01-28T01:47:31;100112.88;;;-1.45;100.00
70206;BME280;57593;55.896;37.396;2023-01-28T01:48:12;100115.47;;;-1.45;100.00
70206;BME280;57593;55.896;37.396;2023-01-28T01:48:44;100113.50;;;-1.37;100.00
70206;BME280;57593;55.896;37.396;2023-01-28T01:49:22;100111.84;;;-1.43;100.00
70206;BME280;57593;55.896;37.396;2023-01-28T01:49:54;100113.09;;;-1.46;100.00
70206;BME280;57593;55.896;37.396;2023-01-28T01:50:35;100118.97;;;-1.51;100.00
70206;BME280;57593;55.896;37.396;2023-01-28T01:51:10;100124.78;;;-1.43;100.00
70206;BME280;57593;55.896;37.396;2023-01-28T01:51:42;100114.56;;;-1.50;100.00
70206;BME280;57593;55.896;37.396;2023-01-28T01:52:19;100110.63;;;-1.53;100.00
70206;BME280;57593;55.896;37.396;2023-01-28T01:52:56;100112.66;;;-1.55;100.00
70206;BME280;57593;55.896;37.396;2023-01-28T01:53:31;100110.75;;;-1.48;100.00
70206;BME280;57593;55.896;37.396;2023-01-28T01:54:03;100115.47;;;-1.45;100.00
70206;BME280;57593;55.896;37.396;2023-01-28T01:54:35;100109.16;;;-1.49;100.00
70206;BME280;57593;55.896;37.396;2023-01-28T01:55:11;100112.50;;;-1.36;100.00
70206;BME280;57593;55.896;37.396;2023-01-28T01:55:48;100112.44;;;-1.24;100.00
70206;BME280;57593;55.896;37.396;2023-01-28T01:56:22;100119.06;;;-1.17;100.00
70206;BME280;57593;55.896;37.396;2023-01-28T01:56:56;100121.19;;;-1.42;100.00
70206;BME280;57593;55.896;37.396;2023-01-28T01:57:32;100119.56;;;-1.60;100.00
70206;BME280;57593;55.896;37.396;2023-01-28T01:58:11;100122.31;;;-1.38;100.00
70206;BME280;57593;55.896;37.396;2023-01-28T01:58:44;100115.81;;;-1.53;100.00
70206;BME280;57593;55.896;37.396;2023-01-28T01:59:23;100111.75;;;-1.49;100.00
70206;BME280;57593;55.896;37.396;2023-01-28T01:59:55;100115.47;;;-1.45;100.00
70206;BME280;57593;55.896;37.396;2023-01-28T02:00:45;100113.03;;;-1.34;100.00
70206;BME280;57593;55.896;37.396;2023-01-28T02:01:19;100123.34;;;-1.51;100.00
70206;BME280;57593;55.896;37.396;2023-01-28T02:01:52;100119.94;;;-1.40;100.00
70206;BME280;57593;55.896;37.396;2023-01-28T02:02:24;100127.66;;;-1.28;100.00
70206;BME280;57593;55.896;37.396;2023-01-28T02:02:55;100124.09;;;-1.10;100.00
70206;BME280;57593;55.896;37.396;2023-01-28T02:03:35;100118.72;;;-1.20;100.00
70206;BME280;57593;55.896;37.396;2023-01-28T02:04:12;100115.41;;;-1.33;100.00
70206;BME280;57593;55.896;37.396;2023-01-28T02:04:49;100117.59;;;-1.41;100.00
70206;BME280;57593;55.896;37.396;2023-01-28T02:05:21;100117.44;;;-1.35;100.00
70206;BME280;57593;55.896;37.396;2023-01-28T02:05:53;100124.59;;;-1.25;100.00
70206;BME280;57593;55.896;37.396;2023-01-28T02:06:25;100115.28;;;-1.26;100.00
70206;BME280;57593;55.896;37.396;2023-01-28T02:06:58;100116.28;;;-1.27;100.00
70206;BME280;57593;55.896;37.396;2023-01-28T02:07:30;100112.09;;;-1.28;100.00
70206;BME280;57593;55.896;37.396;2023-01-28T02:08:02;100104.06;;;-1.15;100.00
70206;BME280;57593;55.896;37.396;2023-01-28T02:08:53;100110.72;;;-1.19;100.00
70206;BME280;57593;55.896;37.396;2023-01-28T02:09:27;100108.78;;;-1.12;100.00
70206;BME280;57593;55.896;37.396;2023-01-28T02:09:59;100105.41;;;-0.95;100.00
70206;BME280;57593;55.896;37.396;2023-01-28T02:10:29;100122.63;;;-0.89;100.00
70206;BME280;57593;55.896;37.396;2023-01-28T02:11:04;100123.31;;;-0.94;100.00
70206;BME280;57593;55.896;37.396;2023-01-28T02:11:35;100111.28;;;-1.00;100.00
70206;BME280;57593;55.896;37.396;2023-01-28T02:12:12;100116.81;;;-0.96;100.00
70206;BME280;57593;55.896;37.396;2023-01-28T02:12:54;100109.78;;;-1.13;100.00
70206;BME280;57593;55.896;37.396;2023-01-28T02:13:34;100117.13;;;-1.38;100.00
70206;BME280;57593;55.896;37.396;2023-01-28T02:14:06;100123.34;;;-1.51;100.00
70206;BME280;57593;55.896;37.396;2023-01-28T02:14:47;100115.81;;;-1.53;100.00
70206;BME280;57593;55.896;37.396;2023-01-28T02:15:21;100117.69;;;-1.48;100.00
70206;BME280;57593;55.896;37.396;2023-01-28T02:15:54;100117.22;;;-1.33;100.00
70206;BME280;57593;55.896;37.396;2023-01-28T02:16:25;100124.03;;;-1.15;100.00
70206;BME280;57593;55.896;37.396;2023-01-28T02:16:59;100119.06;;;-1.17;100.00
70206;BME280;57593;55.896;37.396;2023-01-28T02:17:31;100120.06;;;-1.18;100.00
70206;BME280;57593;55.896;37.396;2023-01-28T02:18:02;100128.00;;;-1.24;100.00
70206;BME280;57593;55.896;37.396;2023-01-28T02:18:34;100122.72;;;-1.30;100.00
70206;BME280;57593;55.896;37.396;2023-01-28T02:19:06;100122.81;;;-1.24;100.00
70206;BME280;57593;55.896;37.396;2023-01-28T02:20:07;100127.28;;;-1.49;100.00
70206;BME280;57593;55.896;37.396;2023-01-28T02:20:51;100122.47;;;-1.28;100.00
70206;BME280;57593;55.896;37.396;2023-01-28T02:23:37;100128.19;;;-1.43;100.00
70206;BME280;57593;55.896;37.396;2023-01-28T02:25:10;100129.72;;;-1.30;100.00
70206;BME280;57593;55.896;37.396;2023-01-28T02:26:15;100126.00;;;-1.34;100.00
70206;BME280;57593;55.896;37.396;2023-01-28T02:27:13;100125.66;;;-1.67;100.00
70206;BME280;57593;55.896;37.396;2023-01-28T02:28:39;100130.94;;;-1.61;100.00
70206;BME280;57593;55.896;37.396;2023-01-28T02:29:24;100133.94;;;-1.53;100.00
70206;BME280;57593;55.896;37.396;2023-01-28T02:30:14;100129.84;;;-1.37;100.00
70206;BME280;57593;55.896;37.396;2023-01-28T02:32:01;100135.63;;;-1.18;100.00
70206;BME280;57593;55.896;37.396;2023-01-28T02:32:42;100139.25;;;-1.48;100.00
70206;BME280;57593;55.896;37.396;2023-01-28T02:33:21;100134.38;;;-1.44;100.00
70206;BME280;57593;55.896;37.396;2023-01-28T02:35:23;100138.88;;;-1.39;100.00
70206;BME280;57593;55.896;37.396;2023-01-28T02:35:58;100134.97;;;-1.54;100.00
70206;BME280;57593;55.896;37.396;2023-01-28T02:36:54;100131.72;;;-1.61;100.00
70206;BME280;57593;55.896;37.396;2023-01-28T02:37:37;100136.13;;;-1.61;100.00
70206;BME280;57593;55.896;37.396;2023-01-28T02:38:25;100135.44;;;-1.57;100.00
70206;BME280;57593;55.896;37.396;2023-01-28T02:39:02;100135.66;;;-1.58;100.00
70206;BME280;57593;55.896;37.396;2023-01-28T02:39:43;100132.97;;;-1.64;100.00
70206;BME280;57593;55.896;37.396;2023-01-28T02:40:22;100125.91;;;-1.68;100.00
70206;BME280;57593;55.896;37.396;2023-01-28T02:41:04;100137.19;;;-1.46;100.00
70206;BME280;57593;55.896;37.396;2023-01-28T02:41:41;100135.34;;;-1.62;100.00
70206;BME280;57593;55.896;37.396;2023-01-28T02:42:17;100140.84;;;-1.58;100.00
70206;BME280;57593;55.896;37.396;2023-01-28T02:42:49;100134.31;;;-1.61;100.00
70206;BME280;57593;55.896;37.396;2023-01-28T02:43:32;100136.66;;;-1.48;100.00
70206;BME280;57593;55.896;37.396;2023-01-28T02:44:03;100133.25;;;-1.48;100.00
70206;BME280;57593;55.896;37.396;2023-01-28T02:44:33;100136.28;;;-1.39;100.00
70206;BME280;57593;55.896;37.396;2023-01-28T02:45:21;100141.47;;;-1.51;100.00
70206;BME280;57593;55.896;37.396;2023-01-28T02:45:52;100140.38;;;-1.55;100.00
70206;BME280;57593;55.896;37.396;2023-01-28T02:46:41;100138.41;;;-1.65;100.00
70206;BME280;57593;55.896;37.396;2023-01-28T02:47:30;100143.22;;;-1.28;100.00
70206;BME280;57593;55.896;37.396;2023-01-28T02:48:21;100150.44;;;-1.30;100.00
70206;BME280;57593;55.896;37.396;2023-01-28T02:48:52;100142.44;;;-1.29;100.00
70206;BME280;57593;55.896;37.396;2023-01-28T02:49:34;100145.91;;;-1.23;100.00
70206;BME280;57593;55.896;37.396;2023-01-28T02:50:09;100146.88;;;-1.12;100.00
70206;BME280;57593;55.896;37.396;2023-01-28T02:51:09;100150.13;;;-1.34;100.00
70206;BME280;57593;55.896;37.396;2023-01-28T02:53:46;100149.41;;;-1.58;100.00
70206;BME280;57593;55.896;37.396;2023-01-28T02:55:28;100145.66;;;-1.50;100.00
70206;BME280;57593;55.896;37.396;2023-01-28T02:56:47;100150.59;;;-1.49;100.00
70206;BME280;57593;55.896;37.396;2023-01-28T02:58:26;100150.25;;;-1.40;100.00
70206;BME280;57593;55.896;37.396;2023-01-28T02:59:39;100150.47;;;-1.83;100.00
70206;BME280;57593;55.896;37.396;2023-01-28T03:00:23;100139.09;;;-1.82;100.00
70206;BME280;57593;55.896;37.396;2023-01-28T03:01:11;100138.31;;;-1.82;100.00
70206;BME280;57593;55.896;37.396;2023-01-28T03:01:47;100138.88;;;-1.80;100.00
70206;BME280;57593;55.896;37.396;2023-01-28T03:04:00;100145.94;;;-1.35;100.00
70206;BME280;57593;55.896;37.396;2023-01-28T03:04:39;100153.06;;;-1.42;100.00
70206;BME280;57593;55.896;37.396;2023-01-28T03:06:00;100155.63;;;-1.30;100.00
70206;BME280;57593;55.896;37.396;2023-01-28T03:06:43;100153.94;;;-1.36;100.00
70206;BME280;57593;55.896;37.396;2023-01-28T03:07:16;100148.50;;;-1.23;100.00
70206;BME280;57593;55.896;37.396;2023-01-28T03:07:48;100150.53;;;-1.25;100.00
70206;BME280;57593;55.896;37.396;2023-01-28T03:08:20;100150.63;;;-1.20;100.00
70206;BME280;57593;55.896;37.396;2023-01-28T03:09:10;100148.66;;;-1.13;100.00